sensor_id;sensor_type;location;lat;lon;timestamp;P1;durP1;ratioP1;P2;durP2;ratioP2
4325;SDS011;58429;49.826;10.880;2023-01-28T00:00:09;8.6;;;6.8;;
4325;SDS011;58429;49.826;10.880;2023-01-28T00:01:09;8.6;;;6.8;;
4325;SDS011;58429;49.826;10.880;2023-01-28T00:02:10;9;;;6.9;;
4325;SDS011;58429;49.826;10.880;2023-01-28T00:03:08;9;;;6.9;;
4325;SDS011;58429;49.826;10.880;2023-01-28T00:04:08;9;;;6.9;;
4325;SDS011;58429;49.826;10.880;2023-01-28T00:05:09;8.8;;;7.5;;
4325;SDS011;58429;49.826;10.880;2023-01-28T00:06:09;8.8;;;7.5;;
4325;SDS011;58429;49.826;10.880;2023-01-28T00:07:08;8.8;;;7.5;;
4325;SDS011;58429;49.826;10.880;2023-01-28T00:08:08;8.7;;;6.7;;
4325;SDS011;58429;49.826;10.880;2023-01-28T00:09:08;8.7;;;6.7;;
4325;SDS011;58429;49.826;10.880;2023-01-28T00:10:08;8.7;;;6.7;;
4325;SDS011;58429;49.826;10.880;2023-01-28T00:11:09;9.8;;;7.6;;
4325;SDS011;58429;49.826;10.880;2023-01-28T00:12:08;9.8;;;7.6;;
4325;SDS011;58429;49.826;10.880;2023-01-28T00:13:09;9.8;;;7.6;;
4325;SDS011;58429;49.826;10.880;2023-01-28T00:14:09;12;;;7;;
4325;SDS011;58429;49.826;10.880;2023-01-28T00:15:08;12;;;7;;
4325;SDS011;58429;49.826;10.880;2023-01-28T00:16:08;12;;;7;;
4325;SDS011;58429;49.826;10.880;2023-01-28T00:17:08;9.3;;;7.5;;
4325;SDS011;58429;49.826;10.880;2023-01-28T00:18:08;9.3;;;7.5;;
4325;SDS011;58429;49.826;10.880;2023-01-28T00:19:08;9.3;;;7.5;;
4325;SDS011;58429;49.826;10.880;2023-01-28T00:20:09;9.8;;;7.4;;
4325;SDS011;58429;49.826;10.880;2023-01-28T00:21:09;9.8;;;7.4;;
4325;SDS011;58429;49.826;10.880;2023-01-28T00:22:08;9.8;;;7.4;;
4325;SDS011;58429;49.826;10.880;2023-01-28T00:23:08;9.3;;;6.8;;
4325;SDS011;58429;49.826;10.880;2023-01-28T00:24:08;9.3;;;6.8;;
4325;SDS011;58429;49.826;10.880;2023-01-28T00:25:08;9.3;;;6.8;;
4325;SDS011;58429;49.826;10.880;2023-01-28T00:26:09;9.8;;;7.6;;
4325;SDS011;58429;49.826;10.880;2023-01-28T00:27:08;9.8;;;7.6;;
4325;SDS011;58429;49.826;10.880;2023-01-28T00:28:08;9.8;;;7.6;;
4325;SDS011;58429;49.826;10.880;2023-01-28T00:29:08;9.3;;;7.1;;
4325;SDS011;58429;49.826;10.880;2023-01-28T00:30:09;9.3;;;7.1;;
4325;SDS011;58429;49.826;10.880;2023-01-28T00:31:09;9.3;;;7.1;;
4325;SDS011;58429;49.826;10.880;2023-01-28T00:32:08;10;;;7.2;;
4325;SDS011;58429;49.826;10.880;2023-01-28T00:33:08;10;;;7.2;;
4325;SDS011;58429;49.826;10.880;2023-01-28T00:34:08;10;;;7.2;;
4325;SDS011;58429;49.826;10.880;2023-01-28T00:35:08;9.7;;;7.2;;
4325;SDS011;58429;49.826;10.880;2023-01-28T00:36:08;9.7;;;7.2;;
4325;SDS011;58429;49.826;10.880;2023-01-28T00:37:08;9.7;;;7.2;;
4325;SDS011;58429;49.826;10.880;2023-01-28T00:38:08;10.4;;;7.9;;
4325;SDS011;58429;49.826;10.880;2023-01-28T00:39:09;10.4;;;7.9;;
4325;SDS011;58429;49.826;10.880;2023-01-28T00:40:09;10.4;;;7.9;;
4325;SDS011;58429;49.826;10.880;2023-01-28T00:41:09;10.5;;;7.5;;
4325;SDS011;58429;49.826;10.880;2023-01-28T00:42:08;10.5;;;7.5;;
4325;SDS011;58429;49.826;10.880;2023-01-28T00:43:08;10.5;;;7.5;;
4325;SDS011;58429;49.826;10.880;2023-01-28T00:44:08;9.6;;;6.9;;
4325;SDS011;58429;49.826;10.880;2023-01-28T00:45:08;9.6;;;6.9;;
4325;SDS011;58429;49.826;10.880;2023-01-28T00:46:09;9.6;;;6.9;;
4325;SDS011;58429;49.826;10.880;2023-01-28T00:47:08;9.6;;;6.9;;
4325;SDS011;58429;49.826;10.880;2023-01-28T00:48:08;9.8;;;7.2;;
4325;SDS011;58429;49.826;10.880;2023-01-28T00:49:08;9.8;;;7.2;;
4325;SDS011;58429;49.826;10.880;2023-01-28T00:50:08;9.8;;;7.2;;
4325;SDS011;58429;49.826;10.880;2023-01-28T00:51:09;10.4;;;8.1;;
4325;SDS011;58429;49.826;10.880;2023-01-28T00:52:08;10.4;;;8.1;;
4325;SDS011;58429;49.826;10.880;2023-01-28T00:53:08;10.4;;;8.1;;
4325;SDS011;58429;49.826;10.880;2023-01-28T00:54:09;9.7;;;7.4;;
4325;SDS011;58429;49.826;10.880;2023-01-28T00:55:08;9.7;;;7.4;;
4325;SDS011;58429;49.826;10.880;2023-01-28T00:56:10;9.7;;;7.4;;
4325;SDS011;58429;49.826;10.880;2023-01-28T00:57:08;9.4;;;7.2;;
4325;SDS011;58429;49.826;10.880;2023-01-28T00:58:08;9.4;;;7.2;;
4325;SDS011;58429;49.826;10.880;2023-01-28T00:59:08;9.4;;;7.2;;
4325;SDS011;58429;49.826;10.880;2023-01-28T01:00:09;9.2;;;7.5;;
4325;SDS011;58429;49.826;10.880;2023-01-28T01:01:09;9.2;;;7.5;;
4325;SDS011;58429;49.826;10.880;2023-01-28T01:02:08;9.2;;;7.5;;
4325;SDS011;58429;49.826;10.880;2023-01-28T01:03:08;9.4;;;8.2;;
4325;SDS011;58429;49.826;10.880;2023-01-28T01:04:08;9.4;;;8.2;;
4325;SDS011;58429;49.826;10.880;2023-01-28T01:05:08;9.4;;;8.2;;
4325;SDS011;58429;49.826;10.880;2023-01-28T01:06:09;10.6;;;7.9;;
4325;SDS011;58429;49.826;10.880;2023-01-28T01:07:08;10.6;;;7.9;;
4325;SDS011;58429;49.826;10.880;2023-01-28T01:08:08;10.6;;;7.9;;
4325;SDS011;58429;49.826;10.880;2023-01-28T01:09:09;9.4;;;7.6;;
4325;SDS011;58429;49.826;10.880;2023-01-28T01:10:10;9.4;;;7.6;;
4325;SDS011;58429;49.826;10.880;2023-01-28T01:11:09;9.4;;;7.6;;
4325;SDS011;58429;49.826;10.880;2023-01-28T01:12:08;10.1;;;8.2;;
4325;SDS011;58429;49.826;10.880;2023-01-28T01:13:08;10.1;;;8.2;;
4325;SDS011;58429;49.826;10.880;2023-01-28T01:14:08;10.1;;;8.2;;
4325;SDS011;58429;49.826;10.880;2023-01-28T01:15:09;10.3;;;7.3;;
4325;SDS011;58429;49.826;10.880;2023-01-28T01:16:09;10.3;;;7.3;;
4325;SDS011;58429;49.826;10.880;2023-01-28T01:17:08;10.3;;;7.3;;
4325;SDS011;58429;49.826;10.880;2023-01-28T01:18:08;9.3;;;7.9;;
4325;SDS011;58429;49.826;10.880;2023-01-28T01:19:08;9.3;;;7.9;;
4325;SDS011;58429;49.826;10.880;2023-01-28T01:20:11;9.3;;;7.9;;
4325;SDS011;58429;49.826;10.880;2023-01-28T01:21:09;10.3;;;8.2;;
4325;SDS011;58429;49.826;10.880;2023-01-28T01:22:08;10.3;;;8.2;;
4325;SDS011;58429;49.826;10.880;2023-01-28T01:23:08;10.3;;;8.2;;
4325;SDS011;58429;49.826;10.880;2023-01-28T01:24:08;9.3;;;7.2;;
4325;SDS011;58429;49.826;10.880;2023-01-28T01:25:08;9.3;;;7.2;;
4325;SDS011;58429;49.826;10.880;2023-01-28T01:26:08;9.3;;;7.2;;
4325;SDS011;58429;49.826;10.880;2023-01-28T01:27:08;9.4;;;7.5;;
4325;SDS011;58429;49.826;10.880;2023-01-28T01:28:08;9.4;;;7.5;;
4325;SDS011;58429;49.826;10.880;2023-01-28T01:29:08;9.4;;;7.5;;
4325;SDS011;58429;49.826;10.880;2023-01-28T01:30:09;9.8;;;7.5;;
4325;SDS011;58429;49.826;10.880;2023-01-28T01:31:09;9.8;;;7.5;;
4325;SDS011;58429;49.826;10.880;2023-01-28T01:32:08;9.8;;;7.5;;
4325;SDS011;58429;49.826;10.880;2023-01-28T01:33:08;9.1;;;7.1;;
4325;SDS011;58429;49.826;10.880;2023-01-28T01:34:08;9.1;;;7.1;;
4325;SDS011;58429;49.826;10.880;2023-01-28T01:35:09;9.1;;;7.1;;
4325;SDS011;58429;49.826;10.880;2023-01-28T01:36:09;10.3;;;7.5;;
4325;SDS011;58429;49.826;10.880;2023-01-28T01:37:08;10.3;;;7.5;;
4325;SDS011;58429;49.826;10.880;2023-01-28T01:38:08;10.3;;;7.5;;
4325;SDS011;58429;49.826;10.880;2023-01-28T01:39:08;11.3;;;7.8;;
4325;SDS011;58429;49.826;10.880;2023-01-28T01:40:09;11.3;;;7.8;;
4325;SDS011;58429;49.826;10.880;2023-01-28T01:41:08;11.3;;;7.8;;
4325;SDS011;58429;49.826;10.880;2023-01-28T01:42:09;10.6;;;8.1;;
4325;SDS011;58429;49.826;10.880;2023-01-28T01:43:13;10.6;;;8.1;;
4325;SDS011;58429;49.826;10.880;2023-01-28T01:44:46;10.6;;;8.1;;
4325;SDS011;58429;49.826;10.880;2023-01-28T01:45:10;9.4;;;7.3;;
4325;SDS011;58429;49.826;10.880;2023-01-28T01:46:08;9.4;;;7.3;;
4325;SDS011;58429;49.826;10.880;2023-01-28T01:47:08;9.4;;;7.3;;
4325;SDS011;58429;49.826;10.880;2023-01-28T01:48:10;10.7;;;8.3;;
4325;SDS011;58429;49.826;10.880;2023-01-28T01:49:12;10.7;;;8.3;;
4325;SDS011;58429;49.826;10.880;2023-01-28T01:50:10;10.7;;;8.3;;
4325;SDS011;58429;49.826;10.880;2023-01-28T01:51:09;9.9;;;8;;
4325;SDS011;58429;49.826;10.880;2023-01-28T01:52:10;9.9;;;8;;
4325;SDS011;58429;49.826;10.880;2023-01-28T01:53:09;9.9;;;8;;
4325;SDS011;58429;49.826;10.880;2023-01-28T01:54:08;10.1;;;7.8;;
4325;SDS011;58429;49.826;10.880;2023-01-28T01:55:10;10.1;;;7.8;;
4325;SDS011;58429;49.826;10.880;2023-01-28T01:56:09;10.1;;;7.8;;
4325;SDS011;58429;49.826;10.880;2023-01-28T01:57:09;10.3;;;8.5;;
4325;SDS011;58429;49.826;10.880;2023-01-28T01:58:09;10.3;;;8.5;;
4325;SDS011;58429;49.826;10.880;2023-01-28T01:59:09;10.3;;;8.5;;
4325;SDS011;58429;49.826;10.880;2023-01-28T02:00:09;10.4;;;7.8;;
4325;SDS011;58429;49.826;10.880;2023-01-28T02:01:08;10.4;;;7.8;;
4325;SDS011;58429;49.826;10.880;2023-01-28T02:02:09;10.4;;;7.8;;
4325;SDS011;58429;49.826;10.880;2023-01-28T02:03:09;10.2;;;8;;
4325;SDS011;58429;49.826;10.880;2023-01-28T02:04:09;10.2;;;8;;
4325;SDS011;58429;49.826;10.880;2023-01-28T02:05:10;10.2;;;8;;
4325;SDS011;58429;49.826;10.880;2023-01-28T02:06:09;9.9;;;7.8;;
4325;SDS011;58429;49.826;10.880;2023-01-28T02:07:09;9.9;;;7.8;;
4325;SDS011;58429;49.826;10.880;2023-01-28T02:08:08;9.9;;;7.8;;
4325;SDS011;58429;49.826;10.880;2023-01-28T02:09:20;10.7;;;8.3;;
4325;SDS011;58429;49.826;10.880;2023-01-28T02:10:09;10.7;;;8.3;;
4325;SDS011;58429;49.826;10.880;2023-01-28T02:11:09;10.7;;;8.3;;
4325;SDS011;58429;49.826;10.880;2023-01-28T02:12:09;11.5;;;8.7;;
4325;SDS011;58429;49.826;10.880;2023-01-28T02:13:08;11.5;;;8.7;;
4325;SDS011;58429;49.826;10.880;2023-01-28T02:14:08;11.5;;;8.7;;
4325;SDS011;58429;49.826;10.880;2023-01-28T02:15:09;11.3;;;8.4;;
4325;SDS011;58429;49.826;10.880;2023-01-28T02:16:09;11.3;;;8.4;;
4325;SDS011;58429;49.826;10.880;2023-01-28T02:17:09;11.3;;;8.4;;
4325;SDS011;58429;49.826;10.880;2023-01-28T02:18:09;10.8;;;8.7;;
4325;SDS011;58429;49.826;10.880;2023-01-28T02:19:08;10.8;;;8.7;;
4325;SDS011;58429;49.826;10.880;2023-01-28T02:20:09;10.8;;;8.7;;
4325;SDS011;58429;49.826;10.880;2023-01-28T02:21:14;10.8;;;8.1;;
4325;SDS011;58429;49.826;10.880;2023-01-28T02:23:06;10.8;;;8.1;;
4325;SDS011;58429;49.826;10.880;2023-01-28T02:23:26;10.8;;;8.1;;
4325;SDS011;58429;49.826;10.880;2023-01-28T02:24:13;10;;;7.8;;
4325;SDS011;58429;49.826;10.880;2023-01-28T02:25:30;10;;;7.8;;
4325;SDS011;58429;49.826;10.880;2023-01-28T02:26:17;10;;;7.8;;
4325;SDS011;58429;49.826;10.880;2023-01-28T02:27:13;10.7;;;7.7;;
4325;SDS011;58429;49.826;10.880;2023-01-28T02:28:12;10.7;;;7.7;;
4325;SDS011;58429;49.826;10.880;2023-01-28T02:29:09;10.7;;;7.7;;
4325;SDS011;58429;49.826;10.880;2023-01-28T02:30:09;10.7;;;7.8;;
4325;SDS011;58429;49.826;10.880;2023-01-28T02:31:10;10.7;;;7.8;;
4325;SDS011;58429;49.826;10.880;2023-01-28T02:32:09;10.7;;;7.8;;
4325;SDS011;58429;49.826;10.880;2023-01-28T02:33:09;10.7;;;7.8;;
4325;SDS011;58429;49.826;10.880;2023-01-28T02:34:10;11;;;7.9;;
4325;SDS011;58429;49.826;10.880;2023-01-28T02:35:10;11;;;7.9;;
4325;SDS011;58429;49.826;10.880;2023-01-28T02:36:11;11;;;7.9;;
4325;SDS011;58429;49.826;10.880;2023-01-28T02:37:10;11.3;;;8.9;;
4325;SDS011;58429;49.826;10.880;2023-01-28T02:38:10;11.3;;;8.9;;
4325;SDS011;58429;49.826;10.880;2023-01-28T02:39:11;11.3;;;8.9;;
4325;SDS011;58429;49.826;10.880;2023-01-28T02:40:09;11.3;;;8.4;;
4325;SDS011;58429;49.826;10.880;2023-01-28T02:41:10;11.3;;;8.4;;
4325;SDS011;58429;49.826;10.880;2023-01-28T02:42:10;11.3;;;8.4;;
4325;SDS011;58429;49.826;10.880;2023-01-28T02:43:09;12.1;;;9.1;;
4325;SDS011;58429;49.826;10.880;2023-01-28T02:44:09;12.1;;;9.1;;
4325;SDS011;58429;49.826;10.880;2023-01-28T02:45:12;12.1;;;9.1;;
4325;SDS011;58429;49.826;10.880;2023-01-28T02:46:11;14;;;9.5;;
4325;SDS011;58429;49.826;10.880;2023-01-28T02:47:09;14;;;9.5;;
4325;SDS011;58429;49.826;10.880;2023-01-28T02:48:09;14;;;9.5;;
4325;SDS011;58429;49.826;10.880;2023-01-28T02:49:09;15;;;9.7;;
4325;SDS011;58429;49.826;10.880;2023-01-28T02:50:09;15;;;9.7;;
4325;SDS011;58429;49.826;10.880;2023-01-28T02:51:10;15;;;9.7;;
4325;SDS011;58429;49.826;10.880;2023-01-28T02:52:13;18.4;;;11.9;;
4325;SDS011;58429;49.826;10.880;2023-01-28T02:53:12;18.4;;;11.9;;
4325;SDS011;58429;49.826;10.880;2023-01-28T02:54:10;18.4;;;11.9;;
4325;SDS011;58429;49.826;10.880;2023-01-28T02:55:10;12.8;;;9.1;;
4325;SDS011;58429;49.826;10.880;2023-01-28T02:56:12;12.8;;;9.1;;
4325;SDS011;58429;49.826;10.880;2023-01-28T02:57:12;12.8;;;9.1;;
4325;SDS011;58429;49.826;10.880;2023-01-28T02:58:10;13.1;;;9.7;;
4325;SDS011;58429;49.826;10.880;2023-01-28T02:59:10;13.1;;;9.7;;
4325;SDS011;58429;49.826;10.880;2023-01-28T03:00:09;13.1;;;9.7;;
4325;SDS011;58429;49.826;10.880;2023-01-28T03:01:09;12.8;;;9.2;;
4325;SDS011;58429;49.826;10.880;2023-01-28T03:02:10;12.8;;;9.2;;
4325;SDS011;58429;49.826;10.880;2023-01-28T03:03:15;12.8;;;9.2;;
4325;SDS011;58429;49.826;10.880;2023-01-28T03:04:09;12.8;;;9.8;;
4325;SDS011;58429;49.826;10.880;2023-01-28T03:05:10;12.8;;;9.8;;
4325;SDS011;58429;49.826;10.880;2023-01-28T03:06:09;12.8;;;9.8;;
4325;SDS011;58429;49.826;10.880;2023-01-28T03:07:09;13.6;;;9.4;;
4325;SDS011;58429;49.826;10.880;2023-01-28T03:08:09;13.6;;;9.4;;
4325;SDS011;58429;49.826;10.880;2023-01-28T03:09:09;13.6;;;9.4;;
4325;SDS011;58429;49.826;10.880;2023-01-28T03:10:10;13.2;;;9.1;;
4325;SDS011;58429;49.826;10.880;2023-01-28T03:11:09;13.2;;;9.1;;
4325;SDS011;58429;49.826;10.880;2023-01-28T03:12:10;13.2;;;9.1;;
4325;SDS011;58429;49.826;10.880;2023-01-28T03:13:09;15.6;;;11.2;;
4325;SDS011;58429;49.826;10.880;2023-01-28T03:14:09;15.6;;;11.2;;
4325;SDS011;58429;49.826;10.880;2023-01-28T03:15:09;15.6;;;11.2;;
4325;SDS011;58429;49.826;10.880;2023-01-28T03:16:09;14.2;;;10.3;;
4325;SDS011;58429;49.826;10.880;2023-01-28T03:17:10;14.2;;;10.3;;
4325;SDS011;58429;49.826;10.880;2023-01-28T03:18:09;14.2;;;10.3;;
4325;SDS011;58429;49.826;10.880;2023-01-28T03:19:09;14.3;;;10.6;;
4325;SDS011;58429;49.826;10.880;2023-01-28T03:20:09;14.3;;;10.6;;
4325;SDS011;58429;49.826;10.880;2023-01-28T03:21:09;14.3;;;10.6;;
4325;SDS011;58429;49.826;10.880;2023-01-28T03:22:09;14.1;;;10.4;;
4325;SDS011;58429;49.826;10.880;2023-01-28T03:23:09;14.1;;;10.4;;
4325;SDS011;58429;49.826;10.880;2023-01-28T03:24:10;14.1;;;10.4;;
4325;SDS011;58429;49.826;10.880;2023-01-28T03:25:09;15.3;;;10.3;;
4325;SDS011;58429;49.826;10.880;2023-01-28T03:26:09;15.3;;;10.3;;
4325;SDS011;58429;49.826;10.880;2023-01-28T03:27:09;15.3;;;10.3;;
4325;SDS011;58429;49.826;10.880;2023-01-28T03:28:09;12.9;;;9.7;;
4325;SDS011;58429;49.826;10.880;2023-01-28T03:29:09;12.9;;;9.7;;
4325;SDS011;58429;49.826;10.880;2023-01-28T03:30:10;12.9;;;9.7;;
4325;SDS011;58429;49.826;10.880;2023-01-28T03:31:09;14.5;;;9.8;;
4325;SDS011;58429;49.826;10.880;2023-01-28T03:32:09;14.5;;;9.8;;
4325;SDS011;58429;49.826;10.880;2023-01-28T03:33:09;14.5;;;9.8;;
4325;SDS011;58429;49.826;10.880;2023-01-28T03:34:09;14.4;;;9.9;;
4325;SDS011;58429;49.826;10.880;2023-01-28T03:35:09;14.4;;;9.9;;
4325;SDS011;58429;49.826;10.880;2023-01-28T03:36:09;14.4;;;9.9;;
4325;SDS011;58429;49.826;10.880;2023-01-28T03:37:09;14.7;;;10.2;;
4325;SDS011;58429;49.826;10.880;2023-01-28T03:38:09;14.7;;;10.2;;
4325;SDS011;58429;49.826;10.880;2023-01-28T03:39:09;14.7;;;10.2;;
4325;SDS011;58429;49.826;10.880;2023-01-28T03:40:09;13.4;;;9.3;;
4325;SDS011;58429;49.826;10.880;2023-01-28T03:41:09;13.4;;;9.3;;
4325;SDS011;58429;49.826;10.880;2023-01-28T03:42:09;13.4;;;9.3;;
4325;SDS011;58429;49.826;10.880;2023-01-28T03:43:09;13.3;;;9.4;;
4325;SDS011;58429;49.826;10.880;2023-01-28T03:44:09;13.3;;;9.4;;
4325;SDS011;58429;49.826;10.880;2023-01-28T03:45:09;13.3;;;9.4;;
4325;SDS011;58429;49.826;10.880;2023-01-28T03:46:09;14.2;;;9.8;;
4325;SDS011;58429;49.826;10.880;2023-01-28T03:47:09;14.2;;;9.8;;
4325;SDS011;58429;49.826;10.880;2023-01-28T03:48:09;14.2;;;9.8;;
4325;SDS011;58429;49.826;10.880;2023-01-28T03:49:09;15.1;;;9.7;;
4325;SDS011;58429;49.826;10.880;2023-01-28T03:50:09;15.1;;;9.7;;
4325;SDS011;58429;49.826;10.880;2023-01-28T03:51:09;15.1;;;9.7;;
4325;SDS011;58429;49.826;10.880;2023-01-28T03:52:09;15.3;;;10.3;;
4325;SDS011;58429;49.826;10.880;2023-01-28T03:53:09;15.3;;;10.3;;
4325;SDS011;58429;49.826;10.880;2023-01-28T03:54:09;15.3;;;10.3;;
4325;SDS011;58429;49.826;10.880;2023-01-28T03:55:09;14.7;;;9.7;;
4325;SDS011;58429;49.826;10.880;2023-01-28T03:56:09;14.7;;;9.7;;
4325;SDS011;58429;49.826;10.880;2023-01-28T03:57:09;14.7;;;9.7;;
4325;SDS011;58429;49.826;10.880;2023-01-28T03:58:09;13.7;;;10.3;;
4325;SDS011;58429;49.826;10.880;2023-01-28T03:59:09;13.7;;;10.3;;
4325;SDS011;58429;49.826;10.880;2023-01-28T04:00:09;13.7;;;10.3;;
4325;SDS011;58429;49.826;10.880;2023-01-28T04:01:09;14.4;;;10.4;;
4325;SDS011;58429;49.826;10.880;2023-01-28T04:02:09;14.4;;;10.4;;
4325;SDS011;58429;49.826;10.880;2023-01-28T04:03:09;14.4;;;10.4;;
4325;SDS011;58429;49.826;10.880;2023-01-28T04:04:09;14.6;;;10;;
4325;SDS011;58429;49.826;10.880;2023-01-28T04:05:09;14.6;;;10;;
4325;SDS011;58429;49.826;10.880;2023-01-28T04:06:09;14.6;;;10;;
4325;SDS011;58429;49.826;10.880;2023-01-28T04:07:09;14.4;;;10.4;;
4325;SDS011;58429;49.826;10.880;2023-01-28T04:08:09;14.4;;;10.4;;
4325;SDS011;58429;49.826;10.880;2023-01-28T04:09:09;14.4;;;10.4;;
4325;SDS011;58429;49.826;10.880;2023-01-28T04:10:09;13.3;;;9.6;;
4325;SDS011;58429;49.826;10.880;2023-01-28T04:11:09;13.3;;;9.6;;
4325;SDS011;58429;49.826;10.880;2023-01-28T04:12:09;13.3;;;9.6;;
4325;SDS011;58429;49.826;10.880;2023-01-28T04:13:09;14.2;;;9.7;;
4325;SDS011;58429;49.826;10.880;2023-01-28T04:14:09;14.2;;;9.7;;
4325;SDS011;58429;49.826;10.880;2023-01-28T04:15:09;14.2;;;9.7;;
4325;SDS011;58429;49.826;10.880;2023-01-28T04:16:09;12.4;;;9.3;;
4325;SDS011;58429;49.826;10.880;2023-01-28T04:17:09;12.4;;;9.3;;
4325;SDS011;58429;49.826;10.880;2023-01-28T04:18:09;12.4;;;9.3;;
4325;SDS011;58429;49.826;10.880;2023-01-28T04:19:09;12.4;;;9.3;;
4325;SDS011;58429;49.826;10.880;2023-01-28T04:20:09;14.2;;;10.5;;
4325;SDS011;58429;49.826;10.880;2023-01-28T04:21:09;14.2;;;10.5;;
4325;SDS011;58429;49.826;10.880;2023-01-28T04:22:09;14.2;;;10.5;;
4325;SDS011;58429;49.826;10.880;2023-01-28T04:23:09;15.1;;;10.5;;
4325;SDS011;58429;49.826;10.880;2023-01-28T04:24:09;15.1;;;10.5;;
4325;SDS011;58429;49.826;10.880;2023-01-28T04:25:09;15.1;;;10.5;;
4325;SDS011;58429;49.826;10.880;2023-01-28T04:26:09;15;;;10;;
4325;SDS011;58429;49.826;10.880;2023-01-28T04:27:09;15;;;10;;
4325;SDS011;58429;49.826;10.880;2023-01-28T04:28:09;15;;;10;;
4325;SDS011;58429;49.826;10.880;2023-01-28T04:29:09;14.2;;;10.2;;
4325;SDS011;58429;49.826;10.880;2023-01-28T04:30:09;14.2;;;10.2;;
4325;SDS011;58429;49.826;10.880;2023-01-28T04:31:09;14.2;;;10.2;;
4325;SDS011;58429;49.826;10.880;2023-01-28T04:32:09;13.9;;;10;;
4325;SDS011;58429;49.826;10.880;2023-01-28T04:33:09;13.9;;;10;;
4325;SDS011;58429;49.826;10.880;2023-01-28T04:34:09;13.9;;;10;;
4325;SDS011;58429;49.826;10.880;2023-01-28T04:35:09;14.4;;;9.9;;
4325;SDS011;58429;49.826;10.880;2023-01-28T04:36:09;14.4;;;9.9;;
4325;SDS011;58429;49.826;10.880;2023-01-28T04:37:09;14.4;;;9.9;;
4325;SDS011;58429;49.826;10.880;2023-01-28T04:38:09;14.3;;;10;;
4325;SDS011;58429;49.826;10.880;2023-01-28T04:39:09;14.3;;;10;;
4325;SDS011;58429;49.826;10.880;2023-01-28T04:40:09;14.3;;;10;;
4325;SDS011;58429;49.826;10.880;2023-01-28T04:41:09;14.3;;;10.6;;
4325;SDS011;58429;49.826;10.880;2023-01-28T04:42:09;14.3;;;10.6;;
4325;SDS011;58429;49.826;10.880;2023-01-28T04:43:09;14.3;;;10.6;;
4325;SDS011;58429;49.826;10.880;2023-01-28T04:44:09;14.3;;;10.4;;
4325;SDS011;58429;49.826;10.880;2023-01-28T04:45:09;14.3;;;10.4;;
4325;SDS011;58429;49.826;10.880;2023-01-28T04:46:09;14.3;;;10.4;;
4325;SDS011;58429;49.826;10.880;2023-01-28T04:47:09;14.9;;;10.3;;
4325;SDS011;58429;49.826;10.880;2023-01-28T04:48:09;14.9;;;10.3;;
4325;SDS011;58429;49.826;10.880;2023-01-28T04:49:09;14.9;;;10.3;;
4325;SDS011;58429;49.826;10.880;2023-01-28T04:50:09;14.6;;;9.9;;
4325;SDS011;58429;49.826;10.880;2023-01-28T04:51:09;14.6;;;9.9;;
4325;SDS011;58429;49.826;10.880;2023-01-28T04:52:09;14.6;;;9.9;;
4325;SDS011;58429;49.826;10.880;2023-01-28T04:53:09;13.6;;;9.7;;
4325;SDS011;58429;49.826;10.880;2023-01-28T04:54:09;13.6;;;9.7;;
4325;SDS011;58429;49.826;10.880;2023-01-28T04:55:09;13.6;;;9.7;;
4325;SDS011;58429;49.826;10.880;2023-01-28T04:56:09;13.3;;;9.6;;
4325;SDS011;58429;49.826;10.880;2023-01-28T04:57:09;13.3;;;9.6;;
4325;SDS011;58429;49.826;10.880;2023-01-28T04:58:09;13.3;;;9.6;;
4325;SDS011;58429;49.826;10.880;2023-01-28T04:59:09;13.5;;;9.9;;
4325;SDS011;58429;49.826;10.880;2023-01-28T05:00:09;13.5;;;9.9;;
4325;SDS011;58429;49.826;10.880;2023-01-28T05:01:09;13.5;;;9.9;;
4325;SDS011;58429;49.826;10.880;2023-01-28T05:02:09;14.2;;;9.8;;
4325;SDS011;58429;49.826;10.880;2023-01-28T05:03:09;14.2;;;9.8;;
4325;SDS011;58429;49.826;10.880;2023-01-28T05:04:09;14.2;;;9.8;;
4325;SDS011;58429;49.826;10.880;2023-01-28T05:05:09;14.6;;;11;;
4325;SDS011;58429;49.826;10.880;2023-01-28T05:06:09;14.6;;;11;;
4325;SDS011;58429;49.826;10.880;2023-01-28T05:07:09;14.6;;;11;;
4325;SDS011;58429;49.826;10.880;2023-01-28T05:08:09;14.8;;;10.5;;
4325;SDS011;58429;49.826;10.880;2023-01-28T05:09:09;14.8;;;10.5;;
4325;SDS011;58429;49.826;10.880;2023-01-28T05:10:09;14.8;;;10.5;;
4325;SDS011;58429;49.826;10.880;2023-01-28T05:11:09;16.3;;;10.7;;
4325;SDS011;58429;49.826;10.880;2023-01-28T05:12:09;16.3;;;10.7;;
4325;SDS011;58429;49.826;10.880;2023-01-28T05:13:09;16.3;;;10.7;;
4325;SDS011;58429;49.826;10.880;2023-01-28T05:14:09;16.2;;;11.4;;
4325;SDS011;58429;49.826;10.880;2023-01-28T05:15:09;16.2;;;11.4;;
4325;SDS011;58429;49.826;10.880;2023-01-28T05:16:09;16.2;;;11.4;;
4325;SDS011;58429;49.826;10.880;2023-01-28T05:17:09;15.6;;;10.9;;
4325;SDS011;58429;49.826;10.880;2023-01-28T05:18:09;15.6;;;10.9;;
4325;SDS011;58429;49.826;10.880;2023-01-28T05:19:09;15.6;;;10.9;;
4325;SDS011;58429;49.826;10.880;2023-01-28T05:20:09;16;;;10.8;;
4325;SDS011;58429;49.826;10.880;2023-01-28T05:21:09;16;;;10.8;;
4325;SDS011;58429;49.826;10.880;2023-01-28T05:22:09;16;;;10.8;;
4325;SDS011;58429;49.826;10.880;2023-01-28T05:23:09;16.8;;;10.6;;
4325;SDS011;58429;49.826;10.880;2023-01-28T05:24:09;16.8;;;10.6;;
4325;SDS011;58429;49.826;10.880;2023-01-28T05:25:09;16.8;;;10.6;;
4325;SDS011;58429;49.826;10.880;2023-01-28T05:26:09;15.6;;;10.9;;
4325;SDS011;58429;49.826;10.880;2023-01-28T05:27:09;15.6;;;10.9;;
4325;SDS011;58429;49.826;10.880;2023-01-28T05:28:09;15.6;;;10.9;;
4325;SDS011;58429;49.826;10.880;2023-01-28T05:29:09;16.4;;;10.8;;
4325;SDS011;58429;49.826;10.880;2023-01-28T05:30:09;16.4;;;10.8;;
4325;SDS011;58429;49.826;10.880;2023-01-28T05:31:09;16.4;;;10.8;;
4325;SDS011;58429;49.826;10.880;2023-01-28T05:32:09;15.9;;;10.6;;
4325;SDS011;58429;49.826;10.880;2023-01-28T05:33:09;15.9;;;10.6;;
4325;SDS011;58429;49.826;10.880;2023-01-28T05:34:09;15.9;;;10.6;;
4325;SDS011;58429;49.826;10.880;2023-01-28T05:35:09;15.1;;;11.2;;
4325;SDS011;58429;49.826;10.880;2023-01-28T05:36:09;15.1;;;11.2;;
4325;SDS011;58429;49.826;10.880;2023-01-28T05:37:09;15.1;;;11.2;;
4325;SDS011;58429;49.826;10.880;2023-01-28T05:38:09;14.7;;;10.3;;
4325;SDS011;58429;49.826;10.880;2023-01-28T05:39:09;14.7;;;10.3;;
4325;SDS011;58429;49.826;10.880;2023-01-28T05:40:09;14.7;;;10.3;;
4325;SDS011;58429;49.826;10.880;2023-01-28T05:41:09;14.6;;;10.3;;
4325;SDS011;58429;49.826;10.880;2023-01-28T05:42:10;14.6;;;10.3;;
4325;SDS011;58429;49.826;10.880;2023-01-28T05:43:09;14.6;;;10.3;;
4325;SDS011;58429;49.826;10.880;2023-01-28T05:44:09;13.7;;;9.6;;
4325;SDS011;58429;49.826;10.880;2023-01-28T05:45:09;13.7;;;9.6;;
4325;SDS011;58429;49.826;10.880;2023-01-28T05:46:09;13.7;;;9.6;;
4325;SDS011;58429;49.826;10.880;2023-01-28T05:47:09;15.1;;;9.8;;
4325;SDS011;58429;49.826;10.880;2023-01-28T05:48:09;15.1;;;9.8;;
4325;SDS011;58429;49.826;10.880;2023-01-28T05:49:09;15.1;;;9.8;;
4325;SDS011;58429;49.826;10.880;2023-01-28T05:50:09;12.9;;;9.1;;
4325;SDS011;58429;49.826;10.880;2023-01-28T05:51:09;12.9;;;9.1;;
4325;SDS011;58429;49.826;10.880;2023-01-28T05:52:09;12.9;;;9.1;;
4325;SDS011;58429;49.826;10.880;2023-01-28T05:53:09;12.9;;;9.8;;
4325;SDS011;58429;49.826;10.880;2023-01-28T05:54:09;12.9;;;9.8;;
4325;SDS011;58429;49.826;10.880;2023-01-28T05:55:09;12.9;;;9.8;;
4325;SDS011;58429;49.826;10.880;2023-01-28T05:56:09;14.2;;;9.4;;
4325;SDS011;58429;49.826;10.880;2023-01-28T05:57:09;14.2;;;9.4;;
4325;SDS011;58429;49.826;10.880;2023-01-28T05:58:09;14.2;;;9.4;;
4325;SDS011;58429;49.826;10.880;2023-01-28T05:59:09;11.7;;;9;;
4325;SDS011;58429;49.826;10.880;2023-01-28T06:00:09;11.7;;;9;;
4325;SDS011;58429;49.826;10.880;2023-01-28T06:01:09;11.7;;;9;;
4325;SDS011;58429;49.826;10.880;2023-01-28T06:02:09;11.5;;;8.6;;
4325;SDS011;58429;49.826;10.880;2023-01-28T06:03:09;11.5;;;8.6;;
4325;SDS011;58429;49.826;10.880;2023-01-28T06:04:09;11.5;;;8.6;;
4325;SDS011;58429;49.826;10.880;2023-01-28T06:05:09;11.5;;;8.6;;
4325;SDS011;58429;49.826;10.880;2023-01-28T06:06:09;11.3;;;8.9;;
4325;SDS011;58429;49.826;10.880;2023-01-28T06:07:09;11.3;;;8.9;;
4325;SDS011;58429;49.826;10.880;2023-01-28T06:08:09;11.3;;;8.9;;